createdAt,value
2018-02-10T00:00:56.760Z,245.60
2018-02-10T00:03:23.689Z,242.60
2018-02-10T00:05:49.832Z,238.48
2018-02-10T00:08:16.769Z,257.65
2018-02-10T00:10:42.915Z,252.60
2018-02-10T00:13:09.836Z,227.87
2018-02-10T00:15:36.024Z,233.90
2018-02-10T00:18:02.218Z,246.93
2018-02-10T00:20:28.328Z,228.82
2018-02-10T00:22:55.291Z,230.02
2018-02-10T00:25:21.443Z,226.62
2018-02-10T00:27:47.590Z,249.82
2018-02-10T00:30:15.543Z,229.15
2018-02-10T00:32:41.757Z,226.77
2018-02-10T00:35:07.959Z,219.10
2018-02-10T00:37:34.124Z,236.20
2018-02-10T00:40:00.271Z,227.35
2018-02-10T00:42:28.311Z,248.50
2018-02-10T00:44:56.312Z,220.23
2018-02-10T00:47:22.488Z,223.80
2018-02-10T00:49:49.376Z,225.77
2018-02-10T00:52:15.537Z,228.65
2018-02-10T00:54:41.679Z,229.15
2018-02-10T00:57:08.575Z,223.27
2018-02-10T00:59:34.755Z,233.15
2018-02-10T01:02:00.939Z,225.32
2018-02-10T01:04:27.105Z,234.02
2018-02-10T01:06:53.284Z,226.43
2018-02-10T01:09:19.455Z,228.20
2018-02-10T01:11:45.606Z,221.43
2018-02-10T01:14:11.755Z,234.73
2018-02-10T01:16:37.939Z,222.48
2018-02-10T01:19:04.085Z,233.60
2018-02-10T01:21:30.252Z,227.65
2018-02-10T01:23:56.400Z,217.50
2018-02-10T01:26:22.542Z,219.23
2018-02-10T01:28:49.447Z,207.32
2018-02-10T01:31:15.588Z,227.25
2018-02-10T01:33:41.736Z,221.48
2018-02-10T01:36:07.937Z,227.85
2018-02-10T01:38:34.083Z,226.02
2018-02-10T01:41:00.233Z,232.90
2018-02-10T01:43:26.540Z,222.45
2018-02-10T01:45:52.871Z,233.45
2018-02-10T01:48:19.015Z,238.35
2018-02-10T01:50:45.198Z,231.18
2018-02-10T01:53:11.331Z,215.12
2018-02-10T01:55:38.232Z,214.40
2018-02-10T01:58:04.375Z,233.05
2018-02-10T02:00:30.528Z,212.57
2018-02-10T02:02:56.699Z,213.48
2018-02-10T02:05:23.596Z,226.55
2018-02-10T02:07:49.736Z,227.65
2018-02-10T02:10:15.895Z,230.10
2018-02-10T02:12:42.793Z,216.57
2018-02-10T02:15:08.964Z,220.70
2018-02-10T02:17:35.121Z,216.35
2018-02-10T02:20:02.432Z,214.82
2018-02-10T02:22:28.635Z,210.52
2018-02-10T02:24:55.479Z,216.68
2018-02-10T02:27:21.647Z,211.12
2018-02-10T02:29:47.788Z,217.45
2018-02-10T02:32:13.975Z,214.15
2018-02-10T02:34:40.343Z,209.52
2018-02-10T02:37:06.517Z,216.90
2018-02-10T02:39:32.673Z,213.93
2018-02-10T02:41:58.851Z,207.25
2018-02-10T02:44:25.124Z,203.05
2018-02-10T02:46:51.463Z,224.30
2018-02-10T02:49:18.350Z,223.70
2018-02-10T02:51:44.493Z,224.60
2018-02-10T02:54:10.644Z,221.23
2018-02-10T02:56:36.783Z,207.70
2018-02-10T02:59:02.920Z,214.60
2018-02-10T03:01:29.084Z,246.55
2018-02-10T03:03:55.978Z,221.50
2018-02-10T03:06:22.145Z,207.20
2018-02-10T03:08:48.300Z,206.68
2018-02-10T03:11:15.204Z,216.82
2018-02-10T03:13:41.356Z,217.55
2018-02-10T03:16:08.273Z,194.27
2018-02-10T03:18:34.441Z,215.32
2018-02-10T03:21:00.592Z,192.10
2018-02-10T03:23:26.754Z,211.10
2018-02-10T03:25:52.908Z,199.25
2018-02-10T03:28:19.064Z,200.13
2018-02-10T03:30:45.212Z,207.40
2018-02-10T03:33:11.391Z,202.90
2018-02-10T03:35:37.548Z,198.87
2018-02-10T03:38:03.678Z,207.68
2018-02-10T03:40:29.839Z,207.40
2018-02-10T03:42:55.971Z,200.18
2018-02-10T03:45:22.215Z,198.27
2018-02-10T03:47:48.619Z,200.95
2018-02-10T03:50:14.760Z,195.20
2018-02-10T03:52:40.939Z,206.87
2018-02-10T03:55:07.842Z,212.65
2018-02-10T03:57:33.988Z,206.95
2018-02-10T04:00:01.895Z,207.98
2018-02-10T04:02:28.776Z,221.43
2018-02-10T04:04:54.918Z,209.82
2018-02-10T04:07:21.092Z,209.05
2018-02-10T04:09:47.247Z,211.20
2018-02-10T04:12:13.384Z,203.35
2018-02-10T04:14:39.556Z,198.02
2018-02-10T04:17:05.724Z,202.95
2018-02-10T04:19:31.863Z,210.93
2018-02-10T04:21:57.989Z,197.27
2018-02-10T04:24:24.160Z,188.05
2018-02-10T04:26:50.295Z,206.85
2018-02-10T04:29:16.432Z,219.18
2018-02-10T04:31:42.604Z,211.60
2018-02-10T04:34:08.728Z,194.43
2018-02-10T04:36:34.865Z,219.25
2018-02-10T04:39:01.031Z,200.93
2018-02-10T04:41:27.192Z,209.02
2018-02-10T04:43:53.342Z,206.90
2018-02-10T04:46:19.643Z,202.65
2018-02-10T04:48:45.909Z,188.48
2018-02-10T04:51:12.064Z,193.27
2018-02-10T04:53:38.235Z,206.02
2018-02-10T04:56:05.117Z,195.87
2018-02-10T04:58:31.290Z,194.00
2018-02-10T05:00:57.468Z,194.90
2018-02-10T05:03:23.627Z,190.73
2018-02-10T05:05:49.767Z,199.77
2018-02-10T05:08:15.952Z,186.55
2018-02-10T05:10:42.835Z,192.18
2018-02-10T05:13:08.984Z,196.43
2018-02-10T05:15:35.147Z,200.70
2018-02-10T05:18:01.300Z,202.32
2018-02-10T05:20:27.420Z,195.70
2018-02-10T05:22:53.571Z,203.73
2018-02-10T05:25:20.447Z,196.50
2018-02-10T05:27:46.588Z,200.77
2018-02-10T05:30:12.759Z,187.82
2018-02-10T05:32:38.927Z,188.45
2018-02-10T05:35:05.100Z,194.15
2018-02-10T05:37:31.250Z,181.15
2018-02-10T05:39:57.384Z,201.35
2018-02-10T05:42:23.516Z,198.43
2018-02-10T05:44:49.687Z,195.75
2018-02-10T05:47:16.643Z,189.07
2018-02-10T05:49:43.044Z,202.82
2018-02-10T05:52:09.196Z,201.57
2018-02-10T05:54:36.079Z,199.57
2018-02-10T05:57:02.250Z,209.10
2018-02-10T05:59:28.399Z,198.57
2018-02-10T06:01:54.542Z,185.32
2018-02-10T06:04:21.419Z,186.48
2018-02-10T06:06:47.579Z,203.32
2018-02-10T06:09:13.744Z,205.90
2018-02-10T06:11:39.904Z,203.95
2018-02-10T06:14:06.095Z,181.18
2018-02-10T06:16:32.281Z,188.60
2018-02-10T06:18:59.907Z,182.60
2018-02-10T06:21:26.075Z,179.85
2018-02-10T06:23:52.234Z,189.57
2018-02-10T06:26:18.364Z,207.95
2018-02-10T06:28:47.267Z,181.25
2018-02-10T06:31:13.411Z,195.10
2018-02-10T06:33:39.557Z,186.93
2018-02-10T06:36:05.743Z,198.43
2018-02-10T06:38:31.891Z,184.27
2018-02-10T06:40:58.028Z,189.77
2018-02-10T06:43:24.219Z,189.87
2018-02-10T06:45:50.360Z,191.80
2018-02-10T06:48:17.423Z,200.15
2018-02-10T06:50:43.613Z,193.50
2018-02-10T06:53:10.418Z,175.77
2018-02-10T06:55:36.601Z,199.00
2018-02-10T06:58:02.772Z,189.00
2018-02-10T07:00:28.990Z,189.15
2018-02-10T07:02:55.887Z,188.62
2018-02-10T07:05:22.042Z,174.65
2018-02-10T07:07:48.291Z,200.30
2018-02-10T07:10:14.444Z,190.10
2018-02-10T07:12:40.635Z,189.45
2018-02-10T07:15:06.811Z,181.15
2018-02-10T07:17:32.984Z,198.38
2018-02-10T07:19:59.179Z,187.98
2018-02-10T07:22:25.332Z,192.30
2018-02-10T07:24:51.485Z,191.98
2018-02-10T07:27:17.669Z,199.65
2018-02-10T07:29:43.848Z,184.93
2018-02-10T07:32:10.043Z,207.20
2018-02-10T07:34:36.963Z,187.73
2018-02-10T07:37:03.132Z,199.10
2018-02-10T07:39:30.020Z,189.62
2018-02-10T07:41:56.172Z,184.80
2018-02-10T07:44:22.319Z,198.23
2018-02-10T07:46:48.464Z,190.52
2018-02-10T07:49:15.535Z,191.43
2018-02-10T07:51:41.759Z,173.13
2018-02-10T07:54:08.672Z,184.15
2018-02-10T07:56:34.899Z,162.80
2018-02-10T07:59:03.136Z,182.60
2018-02-10T08:01:31.358Z,164.13
2018-02-10T08:03:59.428Z,179.27
2018-02-10T08:06:27.427Z,185.50
2018-02-10T08:08:55.382Z,167.65
2018-02-10T08:11:23.602Z,172.07
2018-02-10T08:13:51.530Z,181.98
2018-02-10T08:16:19.747Z,169.55
2018-02-10T08:18:47.978Z,159.52
2018-02-10T08:21:15.874Z,169.30
2018-02-10T08:23:42.061Z,176.15
2018-02-10T08:26:10.003Z,178.50
2018-02-10T08:28:37.907Z,173.20
2018-02-10T08:31:05.939Z,174.62
2018-02-10T08:33:33.883Z,159.52
2018-02-10T08:36:01.774Z,169.95
2018-02-10T08:38:29.894Z,171.52
2018-02-10T08:41:00.132Z,169.73
2018-02-10T08:43:28.096Z,169.62
2018-02-10T08:45:56.071Z,161.50
2018-02-10T08:48:24.037Z,156.82
2018-02-10T08:50:52.092Z,159.02
2018-02-10T08:53:22.482Z,146.05
2018-02-10T08:55:50.390Z,161.90
2018-02-10T08:58:20.649Z,155.10
2018-02-10T09:00:48.611Z,151.52
2018-02-10T09:03:16.592Z,150.93
2018-02-10T09:05:43.503Z,152.45
2018-02-10T09:08:11.638Z,144.05
2018-02-10T09:10:39.679Z,163.15
2018-02-10T09:13:07.599Z,159.07
2018-02-10T09:15:35.517Z,157.33
2018-02-10T09:18:03.543Z,168.57
2018-02-10T09:20:31.511Z,159.77
2018-02-10T09:22:59.427Z,156.80
2018-02-10T09:25:29.321Z,161.70
2018-02-10T09:27:57.260Z,157.57
2018-02-10T09:30:25.175Z,157.93
2018-02-10T09:32:53.139Z,158.23
2018-02-10T09:35:21.086Z,152.53
2018-02-10T09:37:49.004Z,149.60
2018-02-10T09:40:16.923Z,148.23
2018-02-10T09:42:44.846Z,154.37
2018-02-10T09:45:12.773Z,160.30
2018-02-10T09:47:43.072Z,163.47
2018-02-10T09:50:12.971Z,159.00
2018-02-10T09:52:41.003Z,155.33
2018-02-10T09:55:09.199Z,162.10
2018-02-10T09:57:37.145Z,153.57
2018-02-10T10:00:05.112Z,153.53
2018-02-10T10:02:33.093Z,158.83
2018-02-10T10:05:01.052Z,151.77
2018-02-10T10:07:29.035Z,151.03
2018-02-10T10:09:56.983Z,141.60
2018-02-10T10:12:24.899Z,144.47
2018-02-10T10:14:52.804Z,144.17
2018-02-10T10:17:20.762Z,156.57
2018-02-10T10:19:48.723Z,149.47
2018-02-10T10:22:16.619Z,145.80
2018-02-10T10:24:44.547Z,146.70
2018-02-10T10:27:12.447Z,141.67
2018-02-10T10:29:40.363Z,160.90
2018-02-10T10:32:10.496Z,149.03
2018-02-10T10:34:38.423Z,161.70
2018-02-10T10:37:06.384Z,132.93
2018-02-10T10:39:34.338Z,133.37
2018-02-10T10:42:04.390Z,142.57
2018-02-10T10:44:32.322Z,129.97
2018-02-10T10:47:00.282Z,135.93
2018-02-10T10:49:28.302Z,144.53
2018-02-10T10:51:56.202Z,137.40
2018-02-10T10:54:24.222Z,144.93
2018-02-10T10:56:52.435Z,138.50
2018-02-10T10:59:20.383Z,140.03
2018-02-10T11:01:48.368Z,139.17
2018-02-10T11:04:16.317Z,147.60
2018-02-10T11:06:44.279Z,134.47
2018-02-10T11:09:12.231Z,132.53
2018-02-10T11:11:42.431Z,139.90
2018-02-10T11:14:10.404Z,132.77
2018-02-10T11:16:38.375Z,141.67
2018-02-10T11:19:06.283Z,136.87
2018-02-10T11:21:34.255Z,150.47
2018-02-10T11:24:02.214Z,141.07
2018-02-10T11:26:30.124Z,149.47
2018-02-10T11:28:58.081Z,164.40
2018-02-10T11:31:26.018Z,157.47
2018-02-10T11:33:53.970Z,142.43
2018-02-10T11:36:21.871Z,144.80
2018-02-10T11:38:49.801Z,119.80
2018-02-10T11:41:17.705Z,137.37
2018-02-10T11:43:45.606Z,129.93
2018-02-10T11:46:13.584Z,132.30
2018-02-10T11:48:41.498Z,123.33
2018-02-10T11:51:09.436Z,130.13
2018-02-10T11:53:37.384Z,114.07
2018-02-10T11:56:05.363Z,105.77
2018-02-10T11:58:33.303Z,109.30
2018-02-10T12:01:01.228Z,115.13
2018-02-10T12:03:29.187Z,95.53
2018-02-10T12:05:57.122Z,98.80
2018-02-10T12:08:25.070Z,110.97
2018-02-10T12:10:52.995Z,91.93
2018-02-10T12:13:20.927Z,101.83
2018-02-10T12:15:48.879Z,93.83
2018-02-10T12:18:16.766Z,81.93
2018-02-10T12:20:44.695Z,86.93
2018-02-10T12:23:12.617Z,75.03
2018-02-10T12:25:40.520Z,80.20
2018-02-10T12:28:08.427Z,74.60
2018-02-10T12:30:36.364Z,80.77
2018-02-10T12:33:04.298Z,85.27
2018-02-10T12:35:32.260Z,79.90
2018-02-10T12:38:00.188Z,75.40
2018-02-10T12:40:28.107Z,73.63
2018-02-10T12:42:56.025Z,71.70
2018-02-10T12:45:23.938Z,85.47
2018-02-10T12:50:56.872Z,67.07
2018-02-10T12:53:24.776Z,68.87
2018-02-10T12:55:52.686Z,74.90
2018-02-10T12:58:20.708Z,68.50
2018-02-10T13:00:48.887Z,70.73
2018-02-10T13:03:16.802Z,77.90
2018-02-10T13:05:44.727Z,64.80
2018-02-10T13:08:12.651Z,65.23
2018-02-10T13:10:40.555Z,70.30
2018-02-10T13:13:08.509Z,61.77
2018-02-10T13:15:36.423Z,72.47
2018-02-10T13:18:04.371Z,62.10
2018-02-10T13:20:32.306Z,60.33
2018-02-10T13:23:00.224Z,65.97
2018-02-10T13:25:28.118Z,60.50
2018-02-10T13:27:56.055Z,59.00
2018-02-10T13:30:23.958Z,58.50
2018-02-10T13:32:51.886Z,55.07
2018-02-10T13:35:19.871Z,63.50
2018-02-10T13:37:47.803Z,60.57
2018-02-10T13:40:18.043Z,59.03
2018-02-10T13:42:46.015Z,61.93
2018-02-10T13:45:13.931Z,59.07
2018-02-10T13:47:41.867Z,56.63
2018-02-10T13:50:09.831Z,60.90
2018-02-10T13:52:37.779Z,54.93
2018-02-10T13:55:05.727Z,53.50
2018-02-10T13:57:33.661Z,67.10
2018-02-10T14:00:06.166Z,59.67
2018-02-10T14:02:34.308Z,55.37
2018-02-10T14:05:02.217Z,63.17
2018-02-10T14:07:32.375Z,63.33
2018-02-10T14:10:00.313Z,60.27
2018-02-10T14:12:28.243Z,56.07
2018-02-10T14:14:56.170Z,70.87
2018-02-10T14:17:26.391Z,61.13
2018-02-10T14:19:54.299Z,64.97
2018-02-10T14:22:22.255Z,60.23
2018-02-10T14:24:50.256Z,58.47
2018-02-10T14:27:18.167Z,58.03
2018-02-10T14:29:47.781Z,56.50
2018-02-10T14:32:18.294Z,49.30
2018-02-10T14:34:48.641Z,53.43
2018-02-10T14:37:18.755Z,49.93
2018-02-10T14:39:49.271Z,50.20
2018-02-10T14:42:17.227Z,50.07
2018-02-10T14:44:45.183Z,55.47
2018-02-10T14:47:13.122Z,54.53
2018-02-10T14:49:41.043Z,49.80
2018-02-10T14:52:08.979Z,50.20
2018-02-10T14:54:36.870Z,68.37
2018-02-10T14:57:04.771Z,56.77
2018-02-10T14:59:32.683Z,58.57
2018-02-10T15:02:00.726Z,61.73
2018-02-10T15:04:28.701Z,65.13
2018-02-10T15:06:56.654Z,63.93
2018-02-10T15:09:24.559Z,65.27
2018-02-10T15:11:52.474Z,63.90
2018-02-10T15:14:20.382Z,67.80
2018-02-10T15:16:48.279Z,67.80
2018-02-10T15:19:16.175Z,58.93
2018-02-10T15:21:44.103Z,71.83
2018-02-10T15:24:10.263Z,69.77
2018-02-10T15:26:36.443Z,64.47
2018-02-10T15:29:02.619Z,71.93
2018-02-10T15:31:41.975Z,63.40
2018-02-10T15:34:21.340Z,60.77
2018-02-10T15:36:47.508Z,69.77
2018-02-10T15:39:13.651Z,75.70
2018-02-10T15:41:39.834Z,76.28
2018-02-10T15:44:05.979Z,68.35
2018-02-10T15:46:32.163Z,68.72
2018-02-10T15:48:58.360Z,74.97
2018-02-10T15:51:24.517Z,83.97
2018-02-10T15:53:51.448Z,71.12
2018-02-10T15:56:17.641Z,83.37
2018-02-10T15:58:43.852Z,75.18
2018-02-10T16:01:10.015Z,67.97
2018-02-10T16:03:36.315Z,80.12
2018-02-10T16:06:02.703Z,75.05
2018-02-10T16:08:28.887Z,72.03
2018-02-10T16:10:55.895Z,71.97
2018-02-10T16:13:22.047Z,69.85
2018-02-10T16:15:50.011Z,71.85
2018-02-10T16:18:16.879Z,71.68
2018-02-10T16:20:43.795Z,83.78
2018-02-10T16:23:10.010Z,75.43
2018-02-10T16:25:36.228Z,77.20
2018-02-10T16:28:02.409Z,90.50
2018-02-10T16:30:28.577Z,79.90
2018-02-10T16:32:54.812Z,81.07
2018-02-10T16:35:21.739Z,76.97
2018-02-10T16:37:48.660Z,87.78
2018-02-10T16:40:14.846Z,79.35
2018-02-10T16:42:41.762Z,95.38
2018-02-10T16:45:07.927Z,86.97
2018-02-10T16:47:34.120Z,91.70
2018-02-10T16:50:00.310Z,90.87
2018-02-10T16:52:26.504Z,86.18
2018-02-10T16:54:52.705Z,80.22
2018-02-10T16:57:18.884Z,90.70
2018-02-10T16:59:45.077Z,92.90
2018-02-10T17:02:11.258Z,98.57
2018-02-10T17:04:38.407Z,85.20
2018-02-10T17:07:04.848Z,89.13
2018-02-10T17:09:31.077Z,96.50
2018-02-10T17:11:57.270Z,94.20
2018-02-10T17:14:23.500Z,92.10
2018-02-10T17:16:49.662Z,97.30
2018-02-10T17:19:15.839Z,88.45
2018-02-10T17:21:42.006Z,107.22
2018-02-10T17:24:08.230Z,90.95
2018-02-10T17:26:34.415Z,93.30
2018-02-10T17:29:01.456Z,92.68
2018-02-10T17:31:28.408Z,98.82
2018-02-10T17:33:54.584Z,95.35
2018-02-10T17:36:20.768Z,97.90
2018-02-10T17:38:53.088Z,94.37
2018-02-10T17:41:19.252Z,100.38
2018-02-10T17:43:45.438Z,98.05
2018-02-10T17:46:12.354Z,95.82
2018-02-10T17:48:42.489Z,101.70
2018-02-10T17:51:16.830Z,102.03
2018-02-10T17:53:43.732Z,110.47
2018-02-10T17:59:03.379Z,99.70
2018-02-10T18:01:29.579Z,100.85
2018-02-10T18:03:55.769Z,90.55
2018-02-10T18:06:22.040Z,112.18
2018-02-10T18:08:48.433Z,112.12
2018-02-10T18:11:14.641Z,101.12
2018-02-10T18:13:40.821Z,89.87
2018-02-10T18:16:07.740Z,111.25
2018-02-10T18:18:34.681Z,104.22
2018-02-10T18:21:00.886Z,112.78
2018-02-10T18:23:27.051Z,102.38
2018-02-10T18:25:53.244Z,109.87
2018-02-10T18:28:19.416Z,102.97
2018-02-10T18:30:45.597Z,100.90
2018-02-10T18:33:11.781Z,109.53
2018-02-10T18:35:37.968Z,101.68
2018-02-10T18:38:04.135Z,109.68
2018-02-10T18:40:30.335Z,105.20
2018-02-10T18:42:57.254Z,97.03
2018-02-10T18:45:23.449Z,112.53
2018-02-10T18:47:49.632Z,111.32
2018-02-10T18:50:17.295Z,104.38
2018-02-10T18:52:44.246Z,111.17
2018-02-10T18:55:10.474Z,103.45
2018-02-10T18:57:37.455Z,97.05
2018-02-10T19:00:03.880Z,108.82
2018-02-10T19:02:30.482Z,102.38
2018-02-10T19:04:57.844Z,111.30
2018-02-10T19:07:24.331Z,104.55
2018-02-10T19:09:50.537Z,123.05
2018-02-10T19:12:16.707Z,120.32
2018-02-10T19:14:43.652Z,106.50
2018-02-10T19:17:10.555Z,108.40
2018-02-10T19:19:37.547Z,118.03
2018-02-10T19:22:03.727Z,124.07
2018-02-10T19:24:29.893Z,119.68
2018-02-10T19:26:56.852Z,119.35
2018-02-10T19:29:23.815Z,131.12
2018-02-10T19:31:50.742Z,122.13
2018-02-10T19:34:16.997Z,126.78
2018-02-10T19:36:43.280Z,119.50
2018-02-10T19:39:09.499Z,112.72
2018-02-10T19:41:35.790Z,115.10
2018-02-10T19:44:02.734Z,114.03
2018-02-10T19:46:28.963Z,119.40
2018-02-10T19:48:55.143Z,130.37
2018-02-10T19:51:21.336Z,125.40
2018-02-10T19:53:49.051Z,121.60
2018-02-10T19:56:17.605Z,121.82
2018-02-10T19:58:44.060Z,106.15
2018-02-10T20:01:11.008Z,110.90
2018-02-10T20:03:38.870Z,117.37
2018-02-10T20:06:05.795Z,110.72
2018-02-10T20:08:35.211Z,120.62
2018-02-10T20:11:02.840Z,102.05
2018-02-10T20:13:29.067Z,113.97
2018-02-10T20:15:55.280Z,109.15
2018-02-10T20:18:21.504Z,97.03
2018-02-10T20:20:47.727Z,103.50
2018-02-10T20:23:13.925Z,100.45
2018-02-10T20:25:40.121Z,91.60
2018-02-10T20:28:06.326Z,106.45
2018-02-10T20:30:33.268Z,90.70
2018-02-10T20:33:01.851Z,102.45
2018-02-10T20:35:28.035Z,100.90
2018-02-10T20:37:54.293Z,95.12
2018-02-10T20:40:20.508Z,108.75
2018-02-10T20:42:46.683Z,97.60
2018-02-10T20:45:12.859Z,115.82
2018-02-10T20:47:39.771Z,103.18
2018-02-10T20:50:05.967Z,107.75
2018-02-10T20:52:32.132Z,93.62
2018-02-10T20:54:58.335Z,91.15
2018-02-10T20:57:24.517Z,108.90
2018-02-10T20:59:51.489Z,83.53
2018-02-10T21:02:18.446Z,88.18
2018-02-10T21:04:45.364Z,112.78
2018-02-10T21:07:11.540Z,100.95
2018-02-10T21:09:37.912Z,100.47
2018-02-10T21:12:04.330Z,91.82
2018-02-10T21:14:30.511Z,103.72
2018-02-10T21:16:56.745Z,107.78
2018-02-10T21:19:23.688Z,106.87
2018-02-10T21:21:49.900Z,96.93
2018-02-10T21:24:16.089Z,103.00
2018-02-10T21:26:43.016Z,103.20
2018-02-10T21:29:09.200Z,104.20
2018-02-10T21:31:35.437Z,100.72
2018-02-10T21:34:02.335Z,91.95
2018-02-10T21:36:29.253Z,105.00
2018-02-10T21:38:55.459Z,96.82
2018-02-10T21:41:21.632Z,106.60
2018-02-10T21:43:48.564Z,111.17
2018-02-10T21:46:14.750Z,98.28
2018-02-10T21:48:41.686Z,103.85
2018-02-10T21:51:07.866Z,99.40
2018-02-10T21:53:34.057Z,120.97
2018-02-10T21:56:00.235Z,115.57
2018-02-10T21:58:26.417Z,107.00
2018-02-10T22:00:52.633Z,105.07
2018-02-10T22:03:18.827Z,114.68
2018-02-10T22:05:45.028Z,110.37
2018-02-10T22:08:11.260Z,105.68
2018-02-10T22:10:37.527Z,111.35
2018-02-10T22:13:03.783Z,120.25
2018-02-10T22:15:29.988Z,114.85
2018-02-10T22:17:56.891Z,115.53
2018-02-10T22:20:23.054Z,130.37
2018-02-10T22:22:49.295Z,104.28
2018-02-10T22:25:16.192Z,107.60
2018-02-10T22:27:42.368Z,111.10
2018-02-10T22:30:09.288Z,115.50
2018-02-10T22:32:35.480Z,115.68
2018-02-10T22:35:01.648Z,134.30
2018-02-10T22:37:29.362Z,126.38
2018-02-10T22:39:56.283Z,123.78
2018-02-10T22:42:22.488Z,130.10
2018-02-10T22:44:48.731Z,119.15
2018-02-10T22:47:14.879Z,132.18
2018-02-10T22:49:41.081Z,115.28
2018-02-10T22:52:07.262Z,124.32
2018-02-10T22:54:34.227Z,123.55
2018-02-10T22:57:00.430Z,110.72
2018-02-10T22:59:26.605Z,125.75
2018-02-10T23:01:53.511Z,114.95
2018-02-10T23:04:19.688Z,111.88
2018-02-10T23:06:46.616Z,123.50
2018-02-10T23:09:12.794Z,110.82
2018-02-10T23:11:39.075Z,100.30
2018-02-10T23:14:05.433Z,99.90
2018-02-10T23:16:31.613Z,100.47
2018-02-10T23:18:57.806Z,91.87
2018-02-10T23:21:24.740Z,79.90
2018-02-10T23:23:50.911Z,96.15
2018-02-10T23:26:17.095Z,88.30
2018-02-10T23:28:43.279Z,86.05
2018-02-10T23:31:11.554Z,86.53
2018-02-10T23:33:39.165Z,89.32
2018-02-10T23:36:05.332Z,96.47
2018-02-10T23:38:32.259Z,95.38
2018-02-10T23:40:58.447Z,95.05
2018-02-10T23:43:25.415Z,94.25
2018-02-10T23:45:51.595Z,104.03
2018-02-10T23:48:17.784Z,94.80
2018-02-10T23:50:44.014Z,92.07
2018-02-10T23:53:10.176Z,96.25
2018-02-10T23:55:36.372Z,108.90
2018-02-10T23:58:02.582Z,94.50
